KANB/ANB METAR and TAF weather

Enter ICAO airport designator
Station Type Date Time Source
KANB METAR 2018/07/16 23:53 UTC NOAA

KANB 162353Z AUTO 24007KT 10SM CLR 28/23 A2999 RMK AO2 SLP146 T02830228 10306 20283 51008


Station Type Date Time Source
KANB Decoded METAR 2018/07/16 23:53 UTC NOAA

ANNISTON METRO AIRPORT, AL, United States (KANB) 33-35N 085-51W 183M
Jul 16, 2018 - 07:53 PM EDT / 2018.07.16 2353 UTC
Wind: from the WSW (240 degrees) at 8 MPH (7 KT):0
Visibility: 10 mile(s):0
Sky conditions: clear
Temperature: 82.9 F (28.3 C)
Dew Point: 73.0 F (22.8 C)
Relative Humidity: 72%
Pressure (altimeter): 29.99 in. Hg (1015 hPa)
Pressure tendency: 0.02 inches (0.8 hPa) higher than three hours ago
ob: KANB 162353Z AUTO 24007KT 10SM CLR 28/23 A2999 RMK AO2 SLP146 T02830228 10306 20283 51008
cycle: 0

Station Type Date Time Source
KANB TAF 2018/07/16 20:18 UTC NOAA

TAF
AMD KANB 162016Z 1620/1718 25006KT P6SM VCTS BKN050CB
FM170300 19003KT P6SM OVC200
FM170600 00000KT 4SM BR BKN250


Example: see airport list